Time;durP1;ratioP1;P1;durP2;ratioP2;P2;SDS_P1;SDS_P2;PMS_P1;PMS_P2;Temp;Humidity;BMP_temperature;BMP_pressure;BME280_temperature;BME280_humidity;BME280_pressure;Samples;Min_cycle;Max_cycle;Signal;HPM_P1;HPM_P2
2024/02/24 00:00:15;;;;;;;2.53;0.82;;;4.90;99.90;;;;;;4971597;28;20045;-75
2024/02/24 00:02:41;;;;;;;4.40;1.00;;;4.90;99.90;;;;;;4987220;28;20037;-75
2024/02/24 00:05:08;;;;;;;1.83;0.60;;;4.90;99.90;;;;;;5005646;28;20045;-75
2024/02/24 00:07:34;;;;;;;1.67;0.75;;;4.80;99.90;;;;;;4972028;28;20480;-76
2024/02/24 00:10:01;;;;;;;2.30;0.90;;;4.80;99.90;;;;;;4981612;28;20041;-76
2024/02/24 00:12:27;;;;;;;1.90;0.98;;;4.80;99.90;;;;;;4994958;28;20045;-75
2024/02/24 00:14:54;;;;;;;3.67;1.10;;;4.80;99.90;;;;;;4975572;28;20037;-76
2024/02/24 00:17:20;;;;;;;3.20;1.00;;;4.70;99.90;;;;;;4987518;28;20040;-75
2024/02/24 00:19:46;;;;;;;3.78;1.23;;;4.70;99.90;;;;;;4987850;28;20029;-76
2024/02/24 00:22:13;;;;;;;3.75;1.08;;;4.60;99.90;;;;;;4987324;28;20033;-76
2024/02/24 00:24:39;;;;;;;2.05;0.98;;;4.60;99.90;;;;;;4969811;28;20056;-75
2024/02/24 00:27:06;;;;;;;2.58;1.20;;;4.60;99.90;;;;;;4970740;28;20048;-74
2024/02/24 00:29:32;;;;;;;2.15;0.75;;;4.50;99.90;;;;;;4987453;28;20034;-74
2024/02/24 00:31:58;;;;;;;5.10;1.25;;;4.50;99.90;;;;;;4993601;28;20048;-76
2024/02/24 00:34:25;;;;;;;2.63;1.17;;;4.50;99.90;;;;;;5006921;28;20037;-75
2024/02/24 00:36:52;;;;;;;3.60;1.10;;;4.40;99.90;;;;;;4985566;28;21605;-75
2024/02/24 00:39:18;;;;;;;2.97;1.42;;;4.40;99.90;;;;;;4987653;28;20659;-76
2024/02/24 00:41:44;;;;;;;4.30;1.48;;;4.40;99.90;;;;;;4967948;28;20377;-75
2024/02/24 00:44:13;;;;;;;3.10;1.00;;;4.30;99.90;;;;;;4967680;28;20049;-75
2024/02/24 00:46:40;;;;;;;3.17;1.10;;;4.30;99.90;;;;;;4967072;28;20596;-75
2024/02/24 00:49:06;;;;;;;4.68;1.50;;;4.30;99.90;;;;;;4988206;28;20037;-75
2024/02/24 00:51:32;;;;;;;7.18;2.10;;;4.20;99.90;;;;;;4994955;28;20037;-76
2024/02/24 00:54:00;;;;;;;3.92;1.63;;;4.30;99.90;;;;;;5021046;28;21099;-76
2024/02/24 00:56:26;;;;;;;3.05;1.20;;;4.20;99.90;;;;;;4948788;28;20026;-76
2024/02/24 00:58:53;;;;;;;2.35;1.48;;;4.30;99.90;;;;;;4983200;28;20124;-75
2024/02/24 01:01:19;;;;;;;2.78;1.23;;;4.20;99.90;;;;;;5017944;28;20037;-76
2024/02/24 01:03:46;;;;;;;2.35;1.10;;;4.20;99.90;;;;;;4968383;28;20400;-78
2024/02/24 01:06:12;;;;;;;2.85;0.70;;;4.20;99.90;;;;;;5002600;28;20040;-75
2024/02/24 01:08:38;;;;;;;2.45;1.25;;;4.10;99.90;;;;;;4976511;28;20037;-75
2024/02/24 01:11:06;;;;;;;2.33;0.95;;;4.10;99.90;;;;;;4978814;28;20029;-76
2024/02/24 01:13:33;;;;;;;2.28;0.82;;;4.10;99.90;;;;;;4974812;28;20049;-76
2024/02/24 01:16:00;;;;;;;2.67;0.88;;;4.10;99.90;;;;;;4995543;28;20469;-76
2024/02/24 01:18:28;;;;;;;2.30;1.02;;;4.10;99.90;;;;;;4987575;28;20041;-75
2024/02/24 01:20:54;;;;;;;2.25;1.00;;;4.10;99.90;;;;;;4986157;28;20032;-76
2024/02/24 01:23:24;;;;;;;2.42;0.90;;;4.10;99.90;;;;;;4985220;28;20044;-74
2024/02/24 01:25:51;;;;;;;2.92;0.90;;;4.10;99.90;;;;;;5001302;28;20033;-75
2024/02/24 01:28:17;;;;;;;1.85;0.90;;;4.10;99.90;;;;;;4990756;28;20043;-76
2024/02/24 01:30:44;;;;;;;3.17;0.98;;;4.00;99.90;;;;;;4995440;28;20045;-74
2024/02/24 01:33:10;;;;;;;2.63;1.05;;;4.00;99.90;;;;;;4978720;28;20420;-77
2024/02/24 01:35:36;;;;;;;3.17;1.17;;;4.00;99.90;;;;;;4968736;28;20032;-75
2024/02/24 01:38:04;;;;;;;4.20;1.05;;;4.00;99.90;;;;;;4988797;28;20026;-77
2024/02/24 01:40:31;;;;;;;2.08;0.70;;;3.90;99.90;;;;;;4971130;28;20021;-75
2024/02/24 01:42:58;;;;;;;4.03;0.95;;;4.00;99.90;;;;;;4987461;28;20924;-77
2024/02/24 01:45:25;;;;;;;5.15;1.33;;;3.90;99.90;;;;;;4971661;28;20041;-75
2024/02/24 01:47:52;;;;;;;1.92;0.88;;;3.90;99.90;;;;;;4977140;28;20042;-75
2024/02/24 01:50:20;;;;;;;1.90;0.90;;;3.90;99.90;;;;;;5030975;28;20496;-76
2024/02/24 01:52:48;;;;;;;2.00;0.77;;;3.90;99.90;;;;;;4978356;28;20052;-75
2024/02/24 01:55:17;;;;;;;3.05;0.80;;;3.90;99.90;;;;;;4988423;28;20488;-76
2024/02/24 01:57:44;;;;;;;1.98;0.80;;;3.90;99.90;;;;;;4973590;28;20034;-76
2024/02/24 02:00:12;;;;;;;1.90;0.73;;;3.90;99.90;;;;;;4986570;28;20029;-75
2024/02/24 02:02:46;;;;;;;1.70;0.82;;;3.90;99.90;;;;;;4968805;28;20877;-75
2024/02/24 02:05:13;;;;;;;1.50;0.52;;;3.90;99.90;;;;;;4989000;28;20029;-76
2024/02/24 02:07:39;;;;;;;1.25;0.70;;;3.90;99.90;;;;;;4977611;28;20026;-77
2024/02/24 02:10:06;;;;;;;1.63;1.00;;;3.90;99.90;;;;;;4999737;28;20030;-77
2024/02/24 02:12:34;;;;;;;2.05;0.90;;;3.90;99.90;;;;;;4983584;28;20036;-74
2024/02/24 02:15:01;;;;;;;2.92;0.70;;;3.90;99.90;;;;;;4972883;28;20514;-75
2024/02/24 02:17:27;;;;;;;1.52;0.80;;;3.90;99.90;;;;;;4969973;28;20048;-77
2024/02/24 02:20:02;;;;;;;2.75;0.68;;;3.90;99.90;;;;;;4989956;28;20685;-77
2024/02/24 02:22:30;;;;;;;1.52;0.80;;;3.90;99.90;;;;;;4990903;28;20053;-77
2024/02/24 02:24:56;;;;;;;2.05;0.95;;;3.90;99.90;;;;;;4993028;28;20387;-76
2024/02/24 02:27:23;;;;;;;1.38;0.70;;;3.90;99.90;;;;;;4993863;28;20037;-77
2024/02/24 02:29:49;;;;;;;1.77;0.80;;;3.90;99.90;;;;;;4998780;28;21313;-78
2024/02/24 02:32:16;;;;;;;1.23;0.60;;;4.00;99.90;;;;;;4999630;28;20038;-75
2024/02/24 02:34:42;;;;;;;1.48;0.63;;;4.00;99.90;;;;;;5007625;28;20037;-77
2024/02/24 02:37:08;;;;;;;1.35;0.70;;;4.00;99.90;;;;;;4976738;28;20044;-77
2024/02/24 02:39:35;;;;;;;1.98;0.90;;;4.10;99.90;;;;;;4991828;28;20061;-75
2024/02/24 02:42:02;;;;;;;1.40;0.60;;;4.10;99.90;;;;;;5006801;28;20041;-77
2024/02/24 02:44:28;;;;;;;1.73;0.82;;;4.10;99.90;;;;;;4993418;28;20056;-76
2024/02/24 02:46:54;;;;;;;1.63;0.80;;;4.10;99.90;;;;;;4961057;28;20036;-76
2024/02/24 02:49:21;;;;;;;2.20;0.85;;;4.10;99.90;;;;;;5000117;28;20045;-76
2024/02/24 02:51:47;;;;;;;1.83;1.00;;;4.20;99.90;;;;;;4985128;28;20332;-76
2024/02/24 02:54:14;;;;;;;2.88;1.08;;;4.10;99.90;;;;;;4993596;28;20888;-75
2024/02/24 02:56:40;;;;;;;1.85;1.10;;;4.10;99.90;;;;;;4990544;28;20037;-74
2024/02/24 02:59:06;;;;;;;2.40;0.90;;;4.10;99.90;;;;;;4991710;28;20297;-76
2024/02/24 03:01:33;;;;;;;1.70;0.80;;;4.10;99.90;;;;;;4991899;28;20029;-76
2024/02/24 03:03:59;;;;;;;1.85;1.27;;;4.10;99.90;;;;;;4990228;28;20025;-76
2024/02/24 03:06:25;;;;;;;1.65;0.63;;;4.10;99.90;;;;;;4974681;28;20391;-76
2024/02/24 03:08:52;;;;;;;2.65;0.80;;;4.10;99.90;;;;;;4982652;28;20874;-77
2024/02/24 03:11:18;;;;;;;1.77;0.70;;;4.10;99.90;;;;;;4981827;28;21034;-77
2024/02/24 03:13:44;;;;;;;2.38;1.30;;;4.10;99.90;;;;;;5007007;28;20044;-76
2024/02/24 03:16:11;;;;;;;2.33;1.23;;;4.10;99.90;;;;;;4990798;28;20133;-76
2024/02/24 03:18:37;;;;;;;3.17;1.35;;;4.10;99.90;;;;;;4991486;28;20646;-74
2024/02/24 03:21:03;;;;;;;1.95;1.15;;;4.10;99.90;;;;;;4988283;28;20044;-76
2024/02/24 03:23:30;;;;;;;3.50;0.98;;;4.10;99.90;;;;;;4989197;28;20033;-76
2024/02/24 03:25:56;;;;;;;2.80;1.15;;;4.10;99.90;;;;;;4973628;28;20749;-77
2024/02/24 03:28:22;;;;;;;2.13;0.90;;;4.00;99.90;;;;;;4998438;28;20033;-77
2024/02/24 03:30:49;;;;;;;1.98;1.00;;;4.00;99.90;;;;;;5012941;28;20522;-77
2024/02/24 03:33:17;;;;;;;1.85;0.85;;;4.00;99.90;;;;;;4974775;28;20052;-75
2024/02/24 03:35:43;;;;;;;2.22;1.20;;;4.00;99.90;;;;;;4968943;28;20041;-77
2024/02/24 03:38:10;;;;;;;2.38;1.10;;;3.90;99.90;;;;;;4990130;28;20875;-76
2024/02/24 03:40:37;;;;;;;2.90;1.50;;;3.90;99.90;;;;;;5006524;28;21303;-77
2024/02/24 03:43:04;;;;;;;2.90;1.35;;;3.90;99.90;;;;;;4989880;28;20034;-77
2024/02/24 03:45:32;;;;;;;3.10;1.27;;;3.80;99.90;;;;;;4977446;28;20029;-76
2024/02/24 03:47:58;;;;;;;2.38;1.17;;;3.80;99.90;;;;;;4969522;28;20067;-75
2024/02/24 03:50:25;;;;;;;1.98;1.00;;;3.80;99.90;;;;;;4998328;28;20037;-75
2024/02/24 03:52:51;;;;;;;2.67;1.35;;;3.80;99.90;;;;;;4974913;28;20048;-76
2024/02/24 03:55:18;;;;;;;3.13;1.40;;;3.80;99.90;;;;;;4974695;28;20434;-78
2024/02/24 03:57:44;;;;;;;2.50;1.17;;;3.80;99.90;;;;;;4988298;28;20052;-77
2024/02/24 04:00:11;;;;;;;2.25;0.80;;;3.80;99.90;;;;;;4990677;28;20056;-76
2024/02/24 04:02:44;;;;;;;3.28;1.17;;;3.80;99.90;;;;;;4960012;28;20040;-76
2024/02/24 04:05:11;;;;;;;2.08;1.10;;;3.70;99.90;;;;;;4997984;28;20519;-77
2024/02/24 04:07:38;;;;;;;2.00;1.00;;;3.80;99.90;;;;;;4997648;28;20036;-76
2024/02/24 04:10:05;;;;;;;1.70;0.93;;;3.80;99.90;;;;;;4998072;28;20037;-76
2024/02/24 04:12:31;;;;;;;2.72;1.15;;;3.70;99.90;;;;;;4991475;28;20896;-76
2024/02/24 04:14:58;;;;;;;2.35;1.00;;;3.70;99.90;;;;;;4972662;28;20029;-76
2024/02/24 04:17:24;;;;;;;2.08;1.05;;;3.70;99.90;;;;;;4991023;28;20392;-75
2024/02/24 04:19:51;;;;;;;3.42;1.23;;;3.70;99.90;;;;;;4954825;28;20508;-77
2024/02/24 04:22:17;;;;;;;3.25;1.02;;;3.80;99.90;;;;;;4989024;28;20037;-75
2024/02/24 04:24:43;;;;;;;1.77;1.25;;;3.70;99.90;;;;;;4991199;28;20584;-77
2024/02/24 04:27:10;;;;;;;2.33;1.10;;;3.70;99.90;;;;;;4981938;28;20045;-77
2024/02/24 04:29:36;;;;;;;1.60;1.08;;;3.60;99.90;;;;;;4997737;28;20037;-77
2024/02/24 04:32:04;;;;;;;2.58;1.00;;;3.60;99.90;;;;;;4991707;28;20041;-77
2024/02/24 04:34:30;;;;;;;2.78;1.15;;;3.50;99.90;;;;;;4958853;28;20120;-77
2024/02/24 04:36:57;;;;;;;2.28;1.25;;;3.50;99.90;;;;;;4971684;28;20045;-77
2024/02/24 04:39:24;;;;;;;2.95;1.10;;;3.50;99.90;;;;;;4974971;28;20044;-76
2024/02/24 04:41:50;;;;;;;2.40;1.67;;;3.50;99.90;;;;;;4989363;28;20338;-76
2024/02/24 04:44:17;;;;;;;2.70;1.55;;;3.50;99.90;;;;;;4988796;28;20025;-76
2024/02/24 04:46:43;;;;;;;2.53;1.45;;;3.60;99.90;;;;;;4979861;28;20842;-75
2024/02/24 04:49:10;;;;;;;2.65;1.40;;;3.60;99.90;;;;;;5014102;28;20519;-76
2024/02/24 04:51:36;;;;;;;3.22;1.33;;;3.60;99.90;;;;;;5007664;28;20517;-76
2024/02/24 04:54:03;;;;;;;2.03;1.45;;;3.70;99.90;;;;;;4973293;28;20045;-78
2024/02/24 04:56:29;;;;;;;3.42;1.67;;;3.70;99.90;;;;;;4973083;28;20495;-75
2024/02/24 04:58:56;;;;;;;2.10;1.08;;;3.80;99.90;;;;;;4987967;28;20619;-75
2024/02/24 05:01:22;;;;;;;3.03;1.80;;;3.80;99.90;;;;;;4972876;28;20026;-77
2024/02/24 05:03:49;;;;;;;3.03;1.70;;;3.90;99.90;;;;;;4974633;28;20031;-78
2024/02/24 05:06:15;;;;;;;4.85;2.17;;;3.90;99.90;;;;;;4996505;28;20731;-78
2024/02/24 05:08:43;;;;;;;3.05;1.58;;;4.00;99.90;;;;;;4978888;28;20042;-75
2024/02/24 05:11:10;;;;;;;2.97;1.63;;;4.00;99.90;;;;;;4972159;28;20671;-77
2024/02/24 05:13:36;;;;;;;2.67;1.73;;;4.10;99.90;;;;;;4988691;28;20075;-76
2024/02/24 05:16:04;;;;;;;2.20;1.77;;;4.20;99.90;;;;;;4989751;28;20374;-78
2024/02/24 05:18:31;;;;;;;3.28;1.27;;;4.20;99.90;;;;;;4973211;28;20040;-76
2024/02/24 05:20:59;;;;;;;2.75;1.58;;;4.30;99.90;;;;;;4988446;28;20038;-77
2024/02/24 05:23:26;;;;;;;2.60;1.65;;;4.30;99.90;;;;;;4991059;28;20026;-77
2024/02/24 05:25:52;;;;;;;3.25;1.55;;;4.40;99.90;;;;;;4994659;28;20346;-76
2024/02/24 05:28:18;;;;;;;2.40;1.80;;;4.50;99.90;;;;;;4997038;28;20041;-77
2024/02/24 05:30:47;;;;;;;2.10;1.02;;;4.50;99.90;;;;;;4972243;28;20045;-76
2024/02/24 05:33:14;;;;;;;2.92;1.40;;;4.60;99.90;;;;;;4972532;28;20029;-78
2024/02/24 05:35:41;;;;;;;1.85;1.30;;;4.60;99.90;;;;;;4984599;28;20037;-75
2024/02/24 05:38:08;;;;;;;3.45;2.15;;;4.60;99.90;;;;;;4972116;28;20076;-75
2024/02/24 05:40:34;;;;;;;2.67;1.60;;;4.60;99.90;;;;;;4985305;28;20412;-74
2024/02/24 05:43:00;;;;;;;4.10;1.35;;;4.70;99.90;;;;;;4960128;28;20772;-76
2024/02/24 05:45:26;;;;;;;2.72;1.90;;;4.70;99.90;;;;;;4966657;28;20041;-76
2024/02/24 05:47:53;;;;;;;2.47;1.40;;;4.70;99.90;;;;;;4995312;28;20044;-76
2024/02/24 05:50:19;;;;;;;3.65;1.80;;;4.70;99.90;;;;;;4989307;28;20067;-77
2024/02/24 05:52:46;;;;;;;2.50;1.75;;;4.80;99.90;;;;;;4972330;28;20036;-75
2024/02/24 05:55:14;;;;;;;2.40;1.60;;;4.80;99.90;;;;;;4987899;28;20033;-77
2024/02/24 05:57:44;;;;;;;3.80;1.63;;;4.80;99.90;;;;;;4988448;28;20049;-75
2024/02/24 06:00:11;;;;;;;4.28;1.88;;;4.80;99.90;;;;;;4955631;28;20488;-76
2024/02/24 06:02:38;;;;;;;2.80;1.90;;;4.80;99.90;;;;;;4994546;28;20037;-76
2024/02/24 06:05:05;;;;;;;2.42;2.05;;;4.80;99.90;;;;;;4997215;28;20045;-75
2024/02/24 06:07:32;;;;;;;2.45;1.48;;;4.80;99.90;;;;;;4958567;28;20045;-75
2024/02/24 06:09:58;;;;;;;3.15;1.83;;;4.80;99.90;;;;;;4984874;28;20345;-77
2024/02/24 06:12:25;;;;;;;2.75;1.95;;;4.90;99.90;;;;;;4988775;28;20111;-77
2024/02/24 06:14:51;;;;;;;3.13;2.10;;;4.90;99.90;;;;;;5002028;28;20394;-78
2024/02/24 06:17:17;;;;;;;3.42;2.72;;;4.90;99.90;;;;;;4985716;28;20428;-75
2024/02/24 06:19:44;;;;;;;2.50;2.10;;;4.90;99.90;;;;;;4990837;28;20057;-77
2024/02/24 06:22:10;;;;;;;3.13;2.08;;;4.90;99.90;;;;;;4975078;28;20036;-77
2024/02/24 06:24:36;;;;;;;2.53;1.90;;;5.00;99.90;;;;;;5030322;28;20034;-76
2024/02/24 06:27:03;;;;;;;3.10;1.65;;;5.00;99.90;;;;;;4995203;28;20038;-77
2024/02/24 06:29:30;;;;;;;2.10;1.50;;;5.00;99.90;;;;;;4990877;28;20033;-77
2024/02/24 06:31:56;;;;;;;3.20;1.70;;;5.00;99.90;;;;;;4989514;28;20500;-76
2024/02/24 06:34:22;;;;;;;3.75;2.40;;;5.00;99.90;;;;;;4986540;28;20045;-75
2024/02/24 06:36:49;;;;;;;3.95;2.05;;;5.10;99.90;;;;;;4986432;28;20033;-77
2024/02/24 06:39:16;;;;;;;4.25;1.92;;;5.10;99.90;;;;;;5004577;28;20048;-74
2024/02/24 06:41:42;;;;;;;2.20;1.75;;;5.10;99.90;;;;;;4973555;28;20488;-75
2024/02/24 06:44:08;;;;;;;2.72;1.90;;;5.10;99.90;;;;;;4979950;28;20044;-75
2024/02/24 06:46:35;;;;;;;2.67;2.08;;;5.20;99.90;;;;;;4980581;28;20041;-75
2024/02/24 06:49:02;;;;;;;2.53;1.75;;;5.20;99.90;;;;;;4985900;28;20037;-77
2024/02/24 06:51:28;;;;;;;2.47;1.50;;;5.20;99.90;;;;;;4950797;28;20033;-77
2024/02/24 06:53:55;;;;;;;2.72;2.10;;;5.20;99.90;;;;;;4954586;28;20048;-75
2024/02/24 06:56:21;;;;;;;2.67;1.80;;;5.20;99.90;;;;;;4970748;28;20053;-76
2024/02/24 06:58:48;;;;;;;2.72;1.77;;;5.30;99.90;;;;;;4970371;28;20412;-76
2024/02/24 07:01:21;;;;;;;3.15;1.92;;;5.30;99.90;;;;;;4990118;28;20030;-76
2024/02/24 07:03:48;;;;;;;3.92;2.25;;;5.30;99.90;;;;;;4982361;28;20041;-77
2024/02/24 07:06:15;;;;;;;2.38;1.88;;;5.30;99.90;;;;;;4983547;28;20398;-75
2024/02/24 07:08:42;;;;;;;4.30;2.00;;;5.30;99.90;;;;;;4977273;28;20700;-77
2024/02/24 07:11:08;;;;;;;2.92;1.80;;;5.30;99.90;;;;;;4955925;28;20051;-76
2024/02/24 07:13:35;;;;;;;3.28;1.30;;;5.30;99.90;;;;;;4989539;28;20042;-75
2024/02/24 07:16:01;;;;;;;3.00;1.70;;;5.30;99.90;;;;;;4955794;28;20049;-75
2024/02/24 07:18:27;;;;;;;3.33;2.25;;;5.30;99.90;;;;;;4991176;28;20731;-76
2024/02/24 07:20:54;;;;;;;3.80;2.03;;;5.40;99.90;;;;;;4995369;28;20388;-75
2024/02/24 07:23:20;;;;;;;3.33;1.80;;;5.40;99.90;;;;;;4983199;28;20037;-76
2024/02/24 07:25:46;;;;;;;3.90;1.42;;;5.40;99.90;;;;;;5001837;28;20037;-75
2024/02/24 07:28:13;;;;;;;2.97;2.00;;;5.40;99.90;;;;;;4986860;28;20392;-75
2024/02/24 07:30:39;;;;;;;3.30;2.08;;;5.50;99.90;;;;;;4991538;28;20041;-76
2024/02/24 07:33:06;;;;;;;3.53;2.25;;;5.50;99.90;;;;;;5011830;28;20041;-76
2024/02/24 07:35:33;;;;;;;3.20;2.00;;;5.60;99.90;;;;;;4994973;28;20029;-75
2024/02/24 07:37:59;;;;;;;5.38;2.20;;;5.60;99.90;;;;;;4973731;28;20037;-76
2024/02/24 07:40:26;;;;;;;2.60;2.20;;;5.70;99.90;;;;;;4989709;28;20371;-76
2024/02/24 07:42:54;;;;;;;3.25;2.80;;;5.70;99.90;;;;;;4990881;28;20037;-76
2024/02/24 07:45:22;;;;;;;3.65;2.25;;;5.70;99.90;;;;;;4975187;28;20049;-75
2024/02/24 07:47:49;;;;;;;3.50;2.30;;;5.80;99.90;;;;;;4995450;28;20033;-76
2024/02/24 07:50:15;;;;;;;3.88;2.75;;;5.80;99.90;;;;;;4982634;28;20044;-75
2024/02/24 07:52:42;;;;;;;3.50;3.13;;;5.80;99.90;;;;;;5013720;28;20037;-74
2024/02/24 07:55:08;;;;;;;3.40;2.88;;;5.90;99.90;;;;;;4976918;28;20041;-76
2024/02/24 07:57:34;;;;;;;4.93;2.45;;;5.90;99.90;;;;;;4989435;28;20033;-74
2024/02/24 08:00:02;;;;;;;4.28;3.25;;;5.90;99.90;;;;;;4992001;28;20539;-76
2024/02/24 08:02:32;;;;;;;3.83;2.83;;;6.00;99.90;;;;;;5020968;28;20049;-76
2024/02/24 08:04:58;;;;;;;5.78;3.22;;;6.00;99.90;;;;;;4974009;28;20481;-75
2024/02/24 08:07:25;;;;;;;3.95;2.97;;;6.00;99.90;;;;;;5009331;28;20041;-76
2024/02/24 08:09:51;;;;;;;5.78;3.30;;;6.00;99.90;;;;;;4986389;28;20981;-76
2024/02/24 08:12:17;;;;;;;3.15;2.78;;;6.10;99.90;;;;;;4983409;28;20034;-76
2024/02/24 08:14:44;;;;;;;3.10;2.72;;;6.10;99.90;;;;;;4989932;28;20037;-76
2024/02/24 08:17:13;;;;;;;4.45;3.20;;;6.20;99.90;;;;;;4973587;28;20264;-75
2024/02/24 08:19:42;;;;;;;4.47;3.75;;;6.20;99.90;;;;;;4990116;28;20044;-75
2024/02/24 08:22:08;;;;;;;4.95;3.13;;;6.30;99.90;;;;;;4975879;28;20405;-76
2024/02/24 08:24:35;;;;;;;3.88;2.95;;;6.40;99.90;;;;;;4955191;28;20037;-75
2024/02/24 08:27:01;;;;;;;5.80;4.05;;;6.50;99.90;;;;;;4977894;28;20381;-76
2024/02/24 08:29:31;;;;;;;5.65;3.92;;;6.60;99.90;;;;;;4998293;28;20041;-75
2024/02/24 08:31:58;;;;;;;7.20;4.40;;;6.70;99.90;;;;;;4981078;28;20041;-74
2024/02/24 08:34:25;;;;;;;4.07;2.90;;;6.70;99.90;;;;;;4984820;28;20860;-75
2024/02/24 08:36:52;;;;;;;4.35;3.00;;;6.80;99.90;;;;;;4971035;28;20033;-75
2024/02/24 08:39:19;;;;;;;4.88;3.55;;;6.80;99.90;;;;;;4973967;28;20041;-75
2024/02/24 08:41:45;;;;;;;5.40;3.35;;;6.90;99.90;;;;;;4971169;28;20025;-75
2024/02/24 08:44:12;;;;;;;4.45;2.95;;;6.80;99.90;;;;;;5003524;28;20423;-74
2024/02/24 08:46:38;;;;;;;5.07;2.95;;;6.80;99.90;;;;;;5001864;28;20029;-75
2024/02/24 08:49:05;;;;;;;4.78;3.15;;;6.80;99.90;;;;;;4980825;28;20045;-76
2024/02/24 08:51:31;;;;;;;4.32;2.60;;;6.90;99.90;;;;;;4978701;28;20038;-76
2024/02/24 08:53:58;;;;;;;5.10;3.13;;;6.80;99.90;;;;;;4990111;28;20502;-78
2024/02/24 08:56:24;;;;;;;5.47;3.30;;;6.90;99.90;;;;;;4955241;28;20036;-77
2024/02/24 08:58:51;;;;;;;3.72;2.85;;;6.80;99.90;;;;;;5004259;28;20034;-74
2024/02/24 09:01:18;;;;;;;5.65;4.18;;;6.80;99.90;;;;;;4968716;28;20072;-75
2024/02/24 09:03:44;;;;;;;8.38;4.18;;;6.80;99.90;;;;;;4973144;28;20041;-76
2024/02/24 09:06:11;;;;;;;5.82;4.35;;;6.80;99.90;;;;;;4973805;28;20038;-76
2024/02/24 09:08:38;;;;;;;4.57;3.13;;;6.80;99.90;;;;;;4996397;28;20049;-74
2024/02/24 09:11:04;;;;;;;4.82;3.03;;;6.80;99.90;;;;;;4974510;28;20448;-75
2024/02/24 09:13:31;;;;;;;3.72;3.10;;;6.90;99.90;;;;;;4983547;28;20044;-75
2024/02/24 09:15:58;;;;;;;9.15;5.90;;;6.90;99.90;;;;;;4988797;28;20028;-74
2024/02/24 09:18:25;;;;;;;6.60;4.63;;;7.00;99.90;;;;;;4970319;28;20052;-74
2024/02/24 09:20:52;;;;;;;5.35;4.00;;;7.10;99.90;;;;;;4971626;28;20025;-76
2024/02/24 09:23:19;;;;;;;5.95;2.90;;;7.10;99.90;;;;;;4969731;28;20029;-77
2024/02/24 09:25:45;;;;;;;3.20;2.47;;;7.10;99.90;;;;;;4961271;28;20037;-77
2024/02/24 09:28:11;;;;;;;3.00;1.92;;;7.00;99.90;;;;;;4984693;28;20024;-75
2024/02/24 09:30:38;;;;;;;4.32;1.98;;;7.00;99.90;;;;;;4976036;28;20108;-74
2024/02/24 09:33:04;;;;;;;2.63;2.13;;;7.00;99.90;;;;;;4988227;28;20262;-78
2024/02/24 09:35:31;;;;;;;5.47;2.13;;;7.00;99.90;;;;;;4985565;28;20040;-74
2024/02/24 09:37:57;;;;;;;3.03;1.70;;;7.00;99.90;;;;;;4987549;28;20025;-74
2024/02/24 09:40:24;;;;;;;14.02;7.88;;;7.00;99.90;;;;;;4986357;28;20456;-75
2024/02/24 09:42:59;;;;;;;10.40;5.30;;;7.00;99.90;;;;;;4955381;28;20037;-72
2024/02/24 09:45:29;;;;;;;7.63;4.05;;;7.00;99.90;;;;;;4977799;28;20673;-75
2024/02/24 09:47:57;;;;;;;4.25;2.33;;;7.00;99.90;;;;;;4995279;28;20037;-75
2024/02/24 09:50:23;;;;;;;4.05;1.73;;;6.90;99.90;;;;;;5008666;28;20038;-77
2024/02/24 09:52:50;;;;;;;1.70;1.23;;;6.90;99.90;;;;;;4951897;28;20262;-74
2024/02/24 09:55:17;;;;;;;3.53;2.10;;;6.70;99.90;;;;;;4966758;28;20052;-75
2024/02/24 09:57:45;;;;;;;3.63;2.20;;;6.60;99.90;;;;;;4984972;28;20025;-75
2024/02/24 10:00:12;;;;;;;5.38;2.72;;;6.50;99.90;;;;;;4991876;28;20042;-74
2024/02/24 10:02:42;;;;;;;3.63;2.17;;;6.40;99.90;;;;;;4963659;28;20044;-76
2024/02/24 10:05:09;;;;;;;3.35;2.38;;;6.30;99.90;;;;;;4967919;28;20049;-74
2024/02/24 10:07:36;;;;;;;3.10;2.80;;;6.30;99.90;;;;;;4973067;28;20045;-76
2024/02/24 10:10:03;;;;;;;4.50;3.20;;;6.30;99.90;;;;;;4990062;28;20041;-76
2024/02/24 10:12:30;;;;;;;3.90;3.03;;;6.30;99.90;;;;;;4954113;28;20045;-76
2024/02/24 10:14:57;;;;;;;4.00;3.30;;;6.30;99.90;;;;;;4983654;28;21234;-76
2024/02/24 10:17:28;;;;;;;2.67;2.47;;;6.30;99.90;;;;;;4979206;28;20048;-75
2024/02/24 10:19:56;;;;;;;4.70;3.60;;;6.20;99.90;;;;;;4981359;28;20045;-75
2024/02/24 10:22:22;;;;;;;4.22;3.35;;;6.20;99.90;;;;;;4964621;28;20033;-76
2024/02/24 10:24:49;;;;;;;5.70;3.13;;;6.20;99.90;;;;;;4964841;28;20037;-75
2024/02/24 10:27:16;;;;;;;4.28;2.95;;;6.20;99.90;;;;;;4987016;28;20922;-76
2024/02/24 10:29:50;;;;;;;4.43;3.28;;;6.20;99.90;;;;;;4960041;28;20040;-76
2024/02/24 10:32:18;;;;;;;4.03;3.53;;;6.10;99.90;;;;;;4991070;28;20053;-76
2024/02/24 10:34:45;;;;;;;6.65;4.75;;;6.10;99.90;;;;;;5003938;28;20877;-75
2024/02/24 10:37:12;;;;;;;4.65;3.65;;;6.10;99.90;;;;;;4973295;28;20041;-75
2024/02/24 10:39:39;;;;;;;4.50;3.92;;;6.20;99.90;;;;;;4988530;28;20407;-76
2024/02/24 10:42:07;;;;;;;6.07;4.38;;;6.20;99.90;;;;;;4989226;28;20037;-75
2024/02/24 10:44:33;;;;;;;4.90;4.38;;;6.20;99.90;;;;;;4959732;28;20028;-75
2024/02/24 10:47:01;;;;;;;5.18;4.68;;;6.30;99.90;;;;;;5011870;28;20493;-75
2024/02/24 10:49:28;;;;;;;5.40;4.32;;;6.30;99.90;;;;;;4998361;28;20053;-75
2024/02/24 10:51:56;;;;;;;5.35;3.85;;;6.40;99.90;;;;;;4978193;28;20033;-75
2024/02/24 10:54:27;;;;;;;5.75;4.40;;;6.50;99.90;;;;;;4958171;28;20056;-75
2024/02/24 10:56:57;;;;;;;6.45;5.18;;;6.60;99.90;;;;;;4970251;28;20030;-76
2024/02/24 10:59:28;;;;;;;7.20;5.32;;;6.70;99.90;;;;;;4958551;28;20033;-76
2024/02/24 11:02:10;;;;;;;7.50;5.57;;;6.90;99.90;;;;;;5005126;28;20030;-75
2024/02/24 11:04:38;;;;;;;6.55;5.75;;;7.10;99.90;;;;;;4956049;28;20030;-75
2024/02/24 11:07:20;;;;;;;9.00;5.78;;;7.20;99.90;;;;;;4973461;28;20053;-75
2024/02/24 11:09:50;;;;;;;6.72;5.60;;;7.30;99.90;;;;;;5012672;28;20496;-75
2024/02/24 11:12:21;;;;;;;6.40;4.78;;;7.40;99.90;;;;;;4983074;28;20040;-75
2024/02/24 11:14:48;;;;;;;4.95;4.38;;;7.40;99.90;;;;;;4954909;28;20033;-76
2024/02/24 11:17:46;;;;;;;5.78;5.20;;;7.50;99.90;;;;;;4985906;28;20290;-75
2024/02/24 11:20:38;;;;;;;4.28;3.85;;;7.40;99.90;;;;;;4971184;28;20617;-76
2024/02/24 11:23:26;;;;;;;6.43;4.20;;;7.40;99.90;;;;;;4986643;28;20950;-76
2024/02/24 11:26:19;;;;;;;4.35;3.95;;;7.50;99.90;;;;;;4990766;28;20048;-76
2024/02/24 11:28:48;;;;;;;5.88;4.13;;;7.50;99.90;;;;;;4998558;28;20622;-76
2024/02/24 11:31:29;;;;;;;4.85;4.18;;;7.60;99.90;;;;;;4999974;28;20029;-76
2024/02/24 11:34:11;;;;;;;4.60;4.10;;;7.80;99.90;;;;;;4958241;28;20030;-76
2024/02/24 11:36:39;;;;;;;4.72;4.07;;;7.90;99.90;;;;;;4971322;28;20052;-76
2024/02/24 11:39:08;;;;;;;4.15;3.58;;;8.00;99.90;;;;;;4975233;28;20038;-75
2024/02/24 11:41:36;;;;;;;4.40;3.63;;;8.10;99.90;;;;;;4987781;28;20052;-76
2024/02/24 11:44:03;;;;;;;5.47;3.45;;;8.10;99.90;;;;;;4985340;28;20033;-76
2024/02/24 11:46:29;;;;;;;4.70;3.17;;;8.30;99.90;;;;;;4993156;28;20497;-76
2024/02/24 11:48:56;;;;;;;4.55;2.75;;;8.30;99.90;;;;;;4981113;28;20397;-77
2024/02/24 11:51:23;;;;;;;4.78;3.15;;;8.20;99.90;;;;;;4997063;28;20415;-76
2024/02/24 11:53:51;;;;;;;3.90;2.67;;;8.20;99.90;;;;;;4990430;28;20033;-76
2024/02/24 11:56:18;;;;;;;2.40;2.15;;;8.10;99.90;;;;;;4998261;28;20021;-76
2024/02/24 11:58:45;;;;;;;4.22;1.50;;;8.00;99.90;;;;;;4983921;28;20397;-76
2024/02/24 12:01:15;;;;;;;3.88;1.83;;;8.00;99.90;;;;;;4971580;28;20029;-76
2024/02/24 12:03:49;;;;;;;2.67;2.10;;;7.90;99.90;;;;;;4972572;28;20167;-76
2024/02/24 12:06:17;;;;;;;4.82;2.30;;;8.00;99.90;;;;;;4977989;28;20025;-76
2024/02/24 12:08:44;;;;;;;5.70;2.45;;;8.00;99.90;;;;;;4998585;28;20516;-76
2024/02/24 12:11:11;;;;;;;5.28;1.80;;;8.00;99.90;;;;;;4959755;28;21617;-76
2024/02/24 12:13:38;;;;;;;4.50;2.05;;;8.00;99.90;;;;;;5002252;28;20646;-76
2024/02/24 12:16:05;;;;;;;3.60;1.77;;;8.10;99.90;;;;;;4984598;28;20057;-76
2024/02/24 12:18:34;;;;;;;4.53;1.70;;;8.10;99.90;;;;;;4990196;28;21484;-75
2024/02/24 12:21:01;;;;;;;2.58;1.05;;;8.10;99.90;;;;;;4989579;28;20046;-76
2024/02/24 12:23:30;;;;;;;4.03;1.20;;;8.30;99.90;;;;;;4999346;28;20053;-76
2024/02/24 12:25:56;;;;;;;3.22;1.63;;;8.50;99.90;;;;;;5014049;28;20038;-76
2024/02/24 12:28:24;;;;;;;3.30;1.30;;;8.60;99.90;;;;;;4987818;28;20037;-75
2024/02/24 12:30:52;;;;;;;4.00;1.05;;;8.70;99.90;;;;;;4955236;28;20899;-76
2024/02/24 12:33:18;;;;;;;2.60;0.88;;;8.70;99.90;;;;;;4990782;28;20041;-76
2024/02/24 12:35:47;;;;;;;1.88;0.80;;;8.60;99.90;;;;;;4990062;28;20871;-76
2024/02/24 12:38:18;;;;;;;3.80;0.90;;;8.50;99.90;;;;;;4998978;28;20025;-76
2024/02/24 12:40:44;;;;;;;3.13;1.08;;;8.40;99.90;;;;;;5003626;28;20044;-76
2024/02/24 12:43:11;;;;;;;2.83;0.88;;;8.30;99.90;;;;;;4981001;28;20033;-76
2024/02/24 12:45:38;;;;;;;4.63;1.20;;;8.10;99.90;;;;;;4994595;28;20029;-76
2024/02/24 12:48:06;;;;;;;3.78;1.50;;;8.10;99.90;;;;;;5006697;28;20488;-76
2024/02/24 12:50:33;;;;;;;2.80;1.23;;;8.00;99.90;;;;;;4959032;28;20045;-76
2024/02/24 12:53:06;;;;;;;3.10;1.00;;;7.90;99.90;;;;;;4974727;28;20033;-76
2024/02/24 12:55:32;;;;;;;1.70;1.00;;;7.90;99.90;;;;;;5000327;28;20516;-76
2024/02/24 12:57:59;;;;;;;3.67;1.30;;;7.80;99.90;;;;;;4979507;28;20497;-76